createdAt,value
2023-02-19T07:42:27.985Z,16.70
2023-02-19T07:45:50.107Z,21.60
2023-02-19T07:46:51.743Z,27.80
2023-02-19T07:47:51.950Z,52.60
2023-02-19T07:48:51.355Z,62.10
2023-02-19T07:49:51.338Z,62.70
2023-02-19T07:50:51.382Z,52.70
2023-02-19T07:51:56.051Z,75.70
2023-02-19T07:52:52.270Z,60.10
2023-02-19T07:53:51.173Z,52.60
2023-02-19T07:54:51.153Z,56.50
2023-02-19T07:55:51.053Z,55.20
2023-02-19T07:56:51.063Z,46.60
2023-02-19T07:57:51.173Z,60.40
2023-02-19T07:58:51.174Z,117.00
2023-02-19T07:59:51.126Z,87.10
2023-02-19T08:00:51.090Z,100.00
2023-02-19T08:01:51.051Z,131.00
2023-02-19T08:02:51.265Z,84.80
2023-02-19T08:03:51.016Z,173.90
2023-02-19T08:04:51.026Z,115.10
2023-02-19T08:05:51.023Z,215.00
2023-02-19T08:06:51.129Z,219.60
2023-02-19T08:07:51.016Z,202.30
2023-02-19T08:08:51.105Z,206.30
2023-02-19T08:09:51.205Z,222.20
2023-02-19T08:10:51.102Z,193.10
2023-02-19T08:11:51.166Z,187.90
2023-02-19T08:12:50.995Z,340.90
2023-02-19T08:13:51.113Z,455.60
2023-02-19T08:14:51.063Z,522.00
2023-02-19T08:15:51.173Z,613.80
2023-02-19T08:16:51.372Z,400.40
2023-02-19T08:17:51.113Z,579.20
2023-02-19T08:18:51.026Z,708.20
2023-02-19T08:19:51.088Z,759.80
2023-02-19T08:20:50.998Z,647.40
2023-02-19T08:21:51.009Z,622.30
2023-02-19T08:22:50.925Z,661.10
2023-02-19T08:23:51.329Z,646.00
2023-02-19T08:24:52.043Z,719.00
2023-02-19T08:25:51.033Z,714.40
2023-02-19T08:26:50.972Z,780.70
2023-02-19T08:27:50.949Z,798.90
2023-02-19T08:28:51.061Z,810.70
2023-02-19T08:29:51.101Z,772.80
2023-02-19T08:30:51.120Z,722.70
2023-02-19T08:31:51.018Z,665.20
2023-02-19T08:32:50.954Z,741.30
2023-02-19T08:34:24.171Z,709.10
2023-02-19T08:34:51.074Z,725.10
2023-02-19T08:35:51.736Z,774.40
2023-02-19T08:36:51.036Z,683.80
2023-02-19T08:37:50.856Z,747.70
2023-02-19T08:38:51.009Z,786.60
2023-02-19T08:39:50.837Z,749.50
2023-02-19T08:40:50.883Z,754.70
2023-02-19T08:41:50.901Z,763.00
2023-02-19T08:42:50.834Z,719.00
2023-02-19T08:43:51.847Z,889.40
2023-02-19T08:44:50.745Z,808.80
2023-02-19T08:45:50.816Z,750.20
2023-02-19T08:46:50.989Z,794.70
2023-02-19T08:47:50.762Z,837.20
2023-02-19T08:48:50.746Z,875.30
2023-02-19T08:49:50.766Z,865.20
2023-02-19T08:50:50.764Z,758.40
2023-02-19T08:51:50.805Z,867.50
2023-02-19T08:52:50.755Z,876.90
2023-02-19T08:53:50.788Z,765.80
2023-02-19T08:54:50.734Z,789.30
2023-02-19T08:55:50.906Z,831.90
2023-02-19T08:56:50.678Z,777.50
2023-02-19T08:57:50.846Z,900.60
2023-02-19T08:58:50.724Z,860.40
2023-02-19T08:59:50.597Z,729.00
2023-02-19T09:00:50.663Z,855.80
2023-02-19T09:01:50.609Z,896.70
2023-02-19T09:02:50.785Z,822.90
2023-02-19T09:03:50.723Z,787.70
2023-02-19T09:04:50.654Z,839.10
2023-02-19T09:06:04.647Z,851.00
2023-02-19T09:06:50.645Z,867.00
2023-02-19T09:07:50.611Z,888.70
2023-02-19T09:08:50.580Z,801.60
2023-02-19T09:09:50.586Z,826.30
2023-02-19T09:11:22.708Z,803.10
2023-02-19T09:11:50.946Z,781.50
2023-02-19T09:12:51.100Z,791.00
2023-02-19T09:13:50.851Z,863.30
2023-02-19T09:14:50.617Z,741.10
2023-02-19T09:15:50.638Z,785.50
2023-02-19T09:17:23.842Z,830.40
2023-02-19T09:17:51.081Z,814.20
2023-02-19T09:18:51.172Z,775.30
2023-02-19T09:19:50.943Z,814.60
2023-02-19T09:21:05.086Z,809.00
2023-02-19T09:21:50.513Z,841.20
2023-02-19T09:22:50.785Z,791.10
2023-02-19T09:23:50.568Z,831.00
2023-02-19T09:24:50.503Z,766.80
2023-02-19T09:25:50.484Z,807.00
2023-02-19T09:26:50.592Z,751.80
2023-02-19T09:27:50.569Z,777.10
2023-02-19T09:28:50.504Z,722.30
2023-02-19T09:29:50.560Z,758.80
2023-02-19T09:30:50.547Z,706.60
2023-02-19T09:31:50.536Z,761.20
2023-02-19T09:32:50.468Z,737.60
2023-02-19T09:33:50.500Z,749.50
2023-02-19T09:34:50.530Z,801.00
2023-02-19T09:35:50.455Z,730.50
2023-02-19T09:36:50.466Z,741.60
2023-02-19T09:37:50.508Z,714.50
2023-02-19T09:38:50.400Z,682.70
2023-02-19T09:39:50.442Z,730.00
2023-02-19T09:40:50.409Z,720.30
2023-02-19T09:41:50.449Z,729.40
2023-02-19T09:42:50.369Z,690.90
2023-02-19T09:43:50.454Z,783.20
2023-02-19T09:44:50.396Z,790.90
2023-02-19T09:45:50.444Z,787.10
2023-02-19T09:46:50.361Z,798.20
2023-02-19T09:47:50.349Z,747.60
2023-02-19T09:48:50.326Z,653.10
2023-02-19T09:49:50.365Z,683.80
2023-02-19T09:50:50.329Z,768.90
2023-02-19T09:51:50.717Z,776.20
2023-02-19T09:52:50.280Z,718.80
2023-02-19T09:53:50.315Z,567.20
2023-02-19T09:54:50.291Z,668.10
2023-02-19T09:55:50.270Z,623.30
2023-02-19T09:56:50.339Z,552.70
2023-02-19T09:57:50.353Z,649.10
2023-02-19T09:58:50.196Z,682.90
2023-02-19T09:59:50.293Z,549.20
2023-02-19T10:00:50.134Z,551.20
2023-02-19T10:01:50.149Z,571.40
2023-02-19T10:02:50.245Z,503.40
2023-02-19T10:03:50.150Z,512.40
2023-02-19T10:04:50.210Z,537.00
2023-02-19T10:05:50.105Z,509.60
2023-02-19T10:06:50.190Z,460.10
2023-02-19T10:07:50.206Z,440.20
2023-02-19T10:08:50.079Z,412.30
2023-02-19T10:09:50.037Z,411.50
2023-02-19T10:10:50.051Z,446.60
2023-02-19T10:11:50.066Z,369.80
2023-02-19T10:12:50.066Z,360.70
2023-02-19T10:13:50.076Z,379.30
2023-02-19T10:14:50.013Z,462.70
2023-02-19T10:15:50.187Z,461.90
2023-02-19T10:16:50.008Z,520.40
2023-02-19T10:17:50.118Z,511.80
2023-02-19T10:18:50.130Z,576.10
2023-02-19T10:19:50.106Z,585.50
2023-02-19T10:20:50.096Z,679.90
2023-02-19T10:22:06.289Z,679.00
2023-02-19T10:22:50.001Z,763.40
2023-02-19T10:24:03.483Z,654.00
2023-02-19T10:24:50.985Z,840.80
2023-02-19T10:25:50.375Z,735.80
2023-02-19T10:26:50.060Z,744.90
2023-02-19T10:27:50.260Z,768.70
2023-02-19T10:28:50.021Z,766.50
2023-02-19T10:29:50.283Z,761.90
2023-02-19T10:30:50.150Z,776.50
2023-02-19T10:31:50.198Z,708.00
2023-02-19T10:32:50.016Z,962.60
2023-02-19T10:33:50.021Z,821.10
2023-02-19T10:34:50.101Z,753.60
2023-02-19T10:35:49.968Z,756.70
2023-02-19T10:36:49.989Z,884.30
2023-02-19T10:37:50.001Z,777.40
2023-02-19T10:38:50.010Z,914.40
2023-02-19T10:39:49.922Z,992.80
2023-02-19T10:40:49.960Z,885.30
2023-02-19T10:41:49.896Z,794.90
2023-02-19T10:42:50.082Z,903.70
2023-02-19T10:43:50.053Z,844.60
2023-02-19T10:44:49.967Z,776.40
2023-02-19T10:45:49.968Z,747.40
2023-02-19T10:46:49.988Z,851.60
2023-02-19T10:47:49.868Z,805.70
2023-02-19T10:48:49.968Z,818.60
2023-02-19T10:49:49.944Z,804.10
2023-02-19T10:50:50.026Z,733.30
2023-02-19T10:51:49.835Z,749.80
2023-02-19T10:52:50.925Z,741.40
2023-02-19T10:53:49.874Z,805.90
2023-02-19T10:54:49.852Z,759.40
2023-02-19T10:55:50.695Z,708.60
2023-02-19T10:56:50.130Z,803.50
2023-02-19T10:57:49.848Z,769.10
2023-02-19T10:58:49.752Z,751.20
2023-02-19T10:59:49.718Z,729.80
2023-02-19T11:00:49.970Z,698.10
2023-02-19T11:01:49.863Z,608.30
2023-02-19T11:02:49.942Z,506.90
2023-02-19T11:03:49.973Z,423.20
2023-02-19T11:04:49.768Z,419.30
2023-02-19T11:05:50.211Z,443.60
2023-02-19T11:06:49.775Z,539.70
2023-02-19T11:07:49.799Z,532.00
2023-02-19T11:08:49.789Z,520.50
2023-02-19T11:09:49.814Z,596.30
2023-02-19T11:10:49.836Z,541.60
2023-02-19T11:25:28.994Z,474.90
2023-02-19T11:26:31.060Z,628.30
2023-02-19T11:27:30.877Z,489.10
2023-02-19T11:28:30.571Z,381.00
2023-02-19T11:29:30.235Z,391.20
2023-02-19T11:30:30.654Z,415.20
2023-02-19T11:33:49.914Z,421.20
2023-02-19T11:34:51.828Z,409.50
2023-02-19T11:35:51.668Z,331.50
2023-02-19T11:36:51.339Z,312.50
2023-02-19T11:37:51.438Z,333.40
2023-02-19T11:38:51.155Z,268.20
2023-02-19T11:39:51.259Z,248.70
2023-02-19T11:40:51.688Z,346.80
2023-02-19T11:41:51.366Z,425.70
2023-02-19T11:42:51.519Z,294.20
2023-02-19T11:43:50.903Z,321.70
2023-02-19T11:44:52.213Z,382.40
2023-02-19T11:45:51.222Z,367.60
2023-02-19T11:46:50.916Z,302.70
2023-02-19T11:47:51.088Z,302.40
2023-02-19T11:48:51.004Z,313.60
2023-02-19T11:49:51.463Z,260.00
2023-02-19T11:50:51.305Z,397.80
2023-02-19T11:51:52.756Z,373.20
2023-02-19T11:52:52.379Z,297.50
2023-02-19T11:53:50.892Z,356.90
2023-02-19T11:54:51.116Z,435.50
2023-02-19T11:55:50.870Z,391.00
2023-02-19T11:56:51.233Z,359.90
2023-02-19T11:57:51.693Z,377.80
2023-02-19T11:58:51.180Z,389.10
2023-02-19T11:59:50.988Z,320.30
2023-02-19T12:00:51.221Z,289.90
2023-02-19T12:01:51.211Z,331.80
2023-02-19T12:02:51.282Z,388.00
2023-02-19T12:03:51.077Z,328.00
2023-02-19T12:04:51.061Z,319.30
2023-02-19T12:05:51.036Z,275.80
2023-02-19T12:06:50.863Z,260.00
2023-02-19T12:07:51.089Z,273.10
2023-02-19T12:08:51.487Z,362.90
2023-02-19T12:09:50.957Z,405.00
2023-02-19T12:10:51.182Z,569.20
2023-02-19T12:11:50.776Z,491.60
2023-02-19T12:12:51.242Z,486.10
2023-02-19T12:13:50.856Z,477.50
2023-02-19T12:14:51.090Z,519.00
2023-02-19T12:15:50.872Z,526.80
2023-02-19T12:16:50.556Z,499.70
2023-02-19T12:17:51.646Z,535.50
2023-02-19T12:18:50.516Z,511.80
2023-02-19T12:19:50.918Z,529.20
2023-02-19T12:20:50.901Z,472.40
2023-02-19T12:21:50.775Z,433.70
2023-02-19T12:22:51.042Z,342.60
2023-02-19T12:23:51.104Z,372.70
2023-02-19T12:24:51.405Z,418.70
2023-02-19T12:25:50.741Z,384.80
2023-02-19T12:26:50.867Z,425.10
2023-02-19T12:27:50.640Z,462.90
2023-02-19T12:28:50.983Z,421.70
2023-02-19T12:29:51.219Z,503.70
2023-02-19T12:30:51.171Z,507.40
2023-02-19T12:31:51.246Z,463.50
2023-02-19T12:32:50.964Z,488.80
2023-02-19T12:33:50.785Z,335.30
2023-02-19T12:34:50.691Z,299.60
2023-02-19T12:35:51.467Z,243.50
2023-02-19T12:36:51.031Z,265.00
2023-02-19T12:37:52.189Z,247.60
2023-02-19T12:38:50.961Z,270.60
2023-02-19T12:39:50.998Z,290.80
2023-02-19T12:40:52.010Z,318.70
2023-02-19T12:41:50.752Z,434.30
2023-02-19T12:42:51.237Z,325.60
2023-02-19T12:43:51.875Z,370.80
2023-02-19T12:44:50.386Z,489.30
2023-02-19T12:45:50.854Z,461.80
2023-02-19T12:46:51.241Z,451.00
2023-02-19T12:47:50.949Z,546.70
2023-02-19T12:48:50.859Z,420.60
2023-02-19T12:49:51.072Z,524.80
2023-02-19T12:50:51.135Z,487.70
2023-02-19T12:51:51.317Z,422.10
2023-02-19T12:52:50.688Z,354.00
2023-02-19T12:53:51.075Z,313.90
2023-02-19T12:54:51.162Z,318.40
2023-02-19T12:55:50.956Z,301.40
2023-02-19T12:56:51.006Z,324.40
2023-02-19T12:57:50.906Z,411.50
2023-02-19T12:58:50.993Z,435.90
2023-02-19T12:59:50.980Z,391.40
2023-02-19T13:00:51.121Z,368.20
2023-02-19T13:01:51.761Z,353.30
2023-02-19T13:02:51.500Z,325.70
2023-02-19T13:03:50.697Z,310.00
2023-02-19T13:04:50.431Z,314.20
2023-02-19T13:05:50.801Z,344.30
2023-02-19T13:06:50.693Z,295.10
2023-02-19T13:07:50.709Z,343.40
2023-02-19T13:09:05.908Z,361.50
2023-02-19T13:09:52.764Z,361.70
2023-02-19T13:10:50.927Z,360.60
2023-02-19T13:11:50.891Z,327.70
2023-02-19T13:12:51.042Z,258.40
2023-02-19T13:13:50.846Z,263.40
2023-02-19T13:14:51.001Z,315.90
2023-02-19T13:15:50.637Z,216.50
2023-02-19T13:16:51.023Z,289.50
2023-02-19T13:17:51.950Z,312.00
2023-02-19T13:18:50.812Z,327.70
2023-02-19T13:19:50.732Z,352.60
2023-02-19T13:20:50.320Z,307.40
2023-02-19T13:21:50.517Z,343.10
2023-02-19T13:22:50.670Z,294.30
2023-02-19T13:23:50.506Z,290.90
2023-02-19T13:24:50.705Z,267.50
2023-02-19T13:25:50.273Z,307.70
2023-02-19T13:26:50.448Z,280.40
2023-02-19T13:27:50.624Z,306.10
2023-02-19T13:28:50.716Z,287.50
2023-02-19T13:29:52.169Z,322.10
2023-02-19T13:30:50.821Z,347.20
2023-02-19T13:31:50.426Z,395.80
2023-02-19T13:32:50.637Z,387.60
2023-02-19T13:33:50.678Z,444.70
2023-02-19T13:34:50.650Z,416.60
2023-02-19T13:35:50.652Z,433.10
2023-02-19T13:36:50.451Z,460.70
2023-02-19T13:37:49.930Z,541.10
2023-02-19T13:38:50.664Z,733.40
2023-02-19T13:39:50.657Z,689.00
2023-02-19T13:40:50.646Z,731.10
2023-02-19T13:41:51.905Z,766.60
2023-02-19T13:42:50.627Z,683.50
2023-02-19T13:43:50.685Z,693.50
2023-02-19T13:44:52.060Z,702.70
2023-02-19T13:45:50.689Z,726.20
2023-02-19T13:46:50.633Z,721.70
2023-02-19T13:47:50.670Z,652.70
2023-02-19T13:48:51.748Z,621.30
2023-02-19T13:49:51.662Z,627.30
2023-02-19T13:50:50.742Z,518.70
2023-02-19T13:51:51.951Z,568.90
2023-02-19T13:52:50.358Z,500.00
2023-02-19T13:53:50.628Z,398.60
2023-02-19T13:54:50.601Z,446.30
2023-02-19T13:55:50.497Z,432.80
2023-02-19T13:56:51.614Z,402.80
2023-02-19T13:57:50.812Z,436.60
